Wetterdaten: Juni 2014
Datum Temp Feuchte Luftdruck Regen Wind Richtung Sonnenschein UV Solar Windben
01.06.2014 12,2 C 77 % 1020,1 hPa 0,0 l/m 1,0 km/h N-NW 7,67 h 2,7 UV-I 360 W/m 2,8 km/h
02.06.2014 14,2 C 73 % 1018,0 hPa 0,0 l/m 0,6 km/h N-NO 5,00 h 2,3 UV-I 307 W/m 2,4 km/h
03.06.2014 15,5 C 75 % 1013,3 hPa 0,0 l/m 0,1 km/h N 8,25 h 2,9 UV-I 406 W/m 1,2 km/h
04.06.2014 15,4 C 84 % 1006,3 hPa 2,4 l/m 0,6 km/h S-SO 6,33 h 2,2 UV-I 290 W/m 4,0 km/h
05.06.2014 11,5 C 82 % 1012,8 hPa 4,2 l/m 5,8 km/h S 4,67 h 2,1 UV-I 274 W/m 12,1 km/h
06.06.2014 16,6 C 71 % 1016,3 hPa 0,0 l/m 1,5 km/h S-SO 13,00 h 3,7 UV-I 484 W/m 4,8 km/h
07.06.2014 21,8 C 68 % 1014,7 hPa 0,0 l/m 3,2 km/h S 10,75 h 3,6 UV-I 420 W/m 5,6 km/h
08.06.2014 22,4 C 82 % 1016,9 hPa 0,8 l/m 1,4 km/h N 12,75 h 3,1 UV-I 423 W/m 4,4 km/h
09.06.2014 23,7 C 78 % 1016,4 hPa 8,0 l/m 2,7 km/h SO 9,83 h 3,4 UV-I 380 W/m 7,6 km/h
10.06.2014 22,5 C 81 % 1018,1 hPa 0,6 l/m 2,1 km/h SO 8,00 h 3,3 UV-I 384 W/m 10,1 km/h
11.06.2014 17,2 C 90 % 1024,1 hPa 5,6 l/m 0,3 km/h NW 0,50 h 1,5 UV-I 118 W/m 2,8 km/h
12.06.2014 15,8 C 77 % 1025,1 hPa 0,2 l/m 1,5 km/h N-NW 8,58 h 3,2 UV-I 394 W/m 4,4 km/h
13.06.2014 15,5 C 78 % 1019,6 hPa 0,0 l/m 3,0 km/h N-NW 5,17 h 2,5 UV-I 266 W/m 13,3 km/h
14.06.2014 13,8 C 85 % 1019,3 hPa 0,2 l/m 2,9 km/h N-NW 2,25 h 2,2 UV-I 216 W/m 8,4 km/h
15.06.2014 15,1 C 78 % 1021,2 hPa 0,0 l/m 0,9 km/h N-NW 5,08 h 2,8 UV-I 304 W/m 4,0 km/h
16.06.2014 12,6 C 91 % 1019,9 hPa 0,4 l/m 0,0 km/h N-NW 0,92 h 1,7 UV-I 164 W/m 0,0 km/h
17.06.2014 15,0 C 86 % 1020,3 hPa 0,0 l/m 0,0 km/h N-NW 3,08 h 2,4 UV-I 260 W/m 0,0 km/h
18.06.2014 15,6 C 79 % 1020,3 hPa 0,0 l/m 0,9 km/h NW 5,67 h 2,8 UV-I 329 W/m 3,6 km/h
19.06.2014 12,3 C 94 % 1017,0 hPa 4,8 l/m 2,2 km/h NW 0,08 h 1,5 UV-I 117 W/m 18,9 km/h
20.06.2014 12,4 C 87 % 1016,6 hPa 5,4 l/m 0,9 km/h N-NW 1,92 h 2,3 UV-I 199 W/m 4,0 km/h
21.06.2014 12,8 C 90 % 1017,4 hPa 0,4 l/m 0,8 km/h W-NW 0,83 h 1,7 UV-I 168 W/m 8,1 km/h
22.06.2014 13,3 C 82 % 1019,4 hPa 0,4 l/m 0,4 km/h NW 3,75 h 2,0 UV-I 236 W/m 3,2 km/h
23.06.2014 14,2 C 79 % 1020,3 hPa 0,0 l/m 0,5 km/h NW 5,42 h 2,5 UV-I 305 W/m 3,6 km/h
24.06.2014 13,5 C 88 % 1015,9 hPa 1,8 l/m 0,2 km/h W 5,42 h 2,7 UV-I 297 W/m 2,4 km/h
25.06.2014 12,6 C 85 % 1014,4 hPa 3,8 l/m 4,3 km/h N-NW 5,92 h 2,4 UV-I 350 W/m 8,4 km/h
26.06.2014 13,5 C 84 % 1015,3 hPa 0,2 l/m 0,0 km/h SO 6,08 h 2,5 UV-I 308 W/m 0,8 km/h
27.06.2014 16,0 C 83 % 1013,6 hPa 0,2 l/m 2,5 km/h S 6,42 h 2,7 UV-I 334 W/m 4,4 km/h
28.06.2014 15,5 C 90 % 1009,0 hPa 4,8 l/m 0,5 km/h S-SW 4,92 h 2,5 UV-I 244 W/m 2,4 km/h
29.06.2014 13,4 C 92 % 1007,9 hPa 6,8 l/m 0,0 km/h NW 2,25 h 1,8 UV-I 186 W/m 0,0 km/h
30.06.2014 13,5 C 88 % 1014,6 hPa 3,6 l/m 2,0 km/h N-NW 3,50 h 2,4 UV-I 266 W/m 7,2 km/h
Min-Datum 01.06.14 06.06.14 29.06.14 20 Tage 01.06.14 - - - - 01.06.14
Min-Zeit 05:25 16:55 04:50 - 00:00 - - - - 00:00
Minimum 5,6 C 40 % 1004,3 hPa - 0,0 km/h - - - - 0,0 km/h
Max-Datum 08.06.14 12.06.14 12.06.14 09.06.14 05.06.14 - 06.06.14 13.06.14 18.06.14 10.06.14
Max-Zeit 15:00 06:05 09:05 23:20 13:20 - 20:00 13:50 13:45 07:35
Maximum 31,1 C 98 % 1027,0 hPa 8,0 l/m 28,7 km/h
S
- 12,92 h 8,4 UV-I 1280 W/m 62,8 km/h
SO
Durchschnitt 15,3 C 82 % 1016,8 hPa #54,6 l/m 1,4 km/h N-NW #164:00 h 2,5 UV-I 293 W/m 5,2 km/h

Durchschnitt Minimum Temp.9,3 C
Durchschnitt Maximum Temp.20,4 C